sensor_id;sensor_type;location;lat;lon;timestamp;pressure;altitude;pressure_sealevel;temperature;humidity
33280;BME280;20403;43.114;12.434;2023-10-13T00:02:07;99784.09;;;15.12;100.00
33280;BME280;20403;43.114;12.434;2023-10-13T00:04:33;99782.66;;;15.05;100.00
33280;BME280;20403;43.114;12.434;2023-10-13T00:07:01;99791.94;;;14.96;100.00
33280;BME280;20403;43.114;12.434;2023-10-13T00:09:30;99788.03;;;14.98;100.00
33280;BME280;20403;43.114;12.434;2023-10-13T00:12:00;99788.84;;;14.99;100.00
33280;BME280;20403;43.114;12.434;2023-10-13T00:14:26;99791.25;;;15.00;100.00
33280;BME280;20403;43.114;12.434;2023-10-13T00:17:04;99790.44;;;15.00;100.00
33280;BME280;20403;43.114;12.434;2023-10-13T00:22:14;99792.63;;;14.91;100.00
33280;BME280;20403;43.114;12.434;2023-10-13T00:24:45;99793.56;;;14.85;100.00
33280;BME280;20403;43.114;12.434;2023-10-13T00:27:20;99794.13;;;14.87;100.00
33280;BME280;20403;43.114;12.434;2023-10-13T00:30:01;99792.19;;;14.82;100.00
33280;BME280;20403;43.114;12.434;2023-10-13T00:32:43;99794.75;;;14.65;100.00
33280;BME280;20403;43.114;12.434;2023-10-13T00:35:13;99797.94;;;14.67;100.00
33280;BME280;20403;43.114;12.434;2023-10-13T00:37:52;99785.38;;;14.69;100.00
33280;BME280;20403;43.114;12.434;2023-10-13T00:40:22;99783.19;;;14.78;100.00
33280;BME280;20403;43.114;12.434;2023-10-13T00:43:00;99786.94;;;14.82;100.00
33280;BME280;20403;43.114;12.434;2023-10-13T00:45:45;99788.81;;;14.70;100.00
33280;BME280;20403;43.114;12.434;2023-10-13T00:48:24;99785.50;;;14.75;100.00
33280;BME280;20403;43.114;12.434;2023-10-13T00:50:58;99789.59;;;14.70;100.00
33280;BME280;20403;43.114;12.434;2023-10-13T00:53:34;99785.06;;;14.54;100.00
33280;BME280;20403;43.114;12.434;2023-10-13T00:56:03;99788.47;;;14.55;100.00
33280;BME280;20403;43.114;12.434;2023-10-13T00:58:46;99788.59;;;14.60;100.00
33280;BME280;20403;43.114;12.434;2023-10-13T01:01:15;99781.63;;;14.65;100.00
33280;BME280;20403;43.114;12.434;2023-10-13T01:03:52;99773.19;;;14.63;100.00
33280;BME280;20403;43.114;12.434;2023-10-13T01:06:24;99776.50;;;14.59;100.00
33280;BME280;20403;43.114;12.434;2023-10-13T01:09:03;99771.94;;;14.42;100.00
33280;BME280;20403;43.114;12.434;2023-10-13T01:11:40;99770.31;;;14.53;100.00
33280;BME280;20403;43.114;12.434;2023-10-13T01:14:08;99770.69;;;14.57;100.00
33280;BME280;20403;43.114;12.434;2023-10-13T01:16:36;99766.56;;;14.61;100.00
33280;BME280;20403;43.114;12.434;2023-10-13T01:19:05;99767.69;;;14.53;100.00
33280;BME280;20403;43.114;12.434;2023-10-13T01:21:31;99765.31;;;14.40;100.00
33280;BME280;20403;43.114;12.434;2023-10-13T01:23:59;99770.78;;;14.26;100.00
33280;BME280;20403;43.114;12.434;2023-10-13T01:26:24;99772.38;;;14.39;100.00
33280;BME280;20403;43.114;12.434;2023-10-13T01:28:52;99779.13;;;14.47;100.00
33280;BME280;20403;43.114;12.434;2023-10-13T01:31:19;99776.25;;;14.48;100.00
33280;BME280;20403;43.114;12.434;2023-10-13T01:34:02;99775.94;;;14.21;100.00
33280;BME280;20403;43.114;12.434;2023-10-13T01:36:28;99767.81;;;14.35;100.00
33280;BME280;20403;43.114;12.434;2023-10-13T01:38:54;99778.09;;;14.36;100.00
33280;BME280;20403;43.114;12.434;2023-10-13T01:41:21;99772.38;;;14.39;100.00
33280;BME280;20403;43.114;12.434;2023-10-13T01:43:47;99774.56;;;14.19;100.00
33280;BME280;20403;43.114;12.434;2023-10-13T01:46:14;99770.56;;;14.04;100.00
33280;BME280;20403;43.114;12.434;2023-10-13T01:48:41;99775.00;;;13.92;100.00
33280;BME280;20403;43.114;12.434;2023-10-13T01:51:08;99772.63;;;14.14;100.00
33280;BME280;20403;43.114;12.434;2023-10-13T01:53:39;99771.00;;;14.25;100.00
33280;BME280;20403;43.114;12.434;2023-10-13T01:56:05;99771.94;;;14.19;100.00
33280;BME280;20403;43.114;12.434;2023-10-13T01:58:38;99776.38;;;14.18;100.00
33280;BME280;20403;43.114;12.434;2023-10-13T02:01:08;99770.69;;;14.21;100.00
33280;BME280;20403;43.114;12.434;2023-10-13T02:03:35;99774.09;;;14.22;100.00
33280;BME280;20403;43.114;12.434;2023-10-13T02:06:12;99776.94;;;14.08;100.00
33280;BME280;20403;43.114;12.434;2023-10-13T02:08:42;99776.06;;;14.15;100.00
33280;BME280;20403;43.114;12.434;2023-10-13T02:11:09;99779.09;;;14.12;100.00
33280;BME280;20403;43.114;12.434;2023-10-13T02:13:35;99772.16;;;14.05;100.00
33280;BME280;20403;43.114;12.434;2023-10-13T02:16:13;99775.91;;;13.98;100.00
33280;BME280;20403;43.114;12.434;2023-10-13T02:18:43;99780.34;;;13.97;100.00
33280;BME280;20403;43.114;12.434;2023-10-13T02:21:09;99780.13;;;13.87;100.00
33280;BME280;20403;43.114;12.434;2023-10-13T02:23:41;99779.88;;;13.77;100.00
33280;BME280;20403;43.114;12.434;2023-10-13T02:26:14;99778.41;;;13.81;100.00
33280;BME280;20403;43.114;12.434;2023-10-13T02:29:01;99781.13;;;13.74;100.00
33280;BME280;20403;43.114;12.434;2023-10-13T02:31:32;99781.06;;;13.51;100.00
33280;BME280;20403;43.114;12.434;2023-10-13T02:33:58;99785.88;;;13.65;100.00
33280;BME280;20403;43.114;12.434;2023-10-13T02:36:25;99775.84;;;13.62;100.00
33280;BME280;20403;43.114;12.434;2023-10-13T02:39:03;99778.84;;;13.66;100.00
33280;BME280;20403;43.114;12.434;2023-10-13T02:41:33;99774.28;;;13.61;100.00
33280;BME280;20403;43.114;12.434;2023-10-13T02:44:02;99773.34;;;13.68;100.00
33280;BME280;20403;43.114;12.434;2023-10-13T02:46:31;99780.78;;;13.71;100.00
33280;BME280;20403;43.114;12.434;2023-10-13T02:48:57;99774.28;;;13.73;100.00
33280;BME280;20403;43.114;12.434;2023-10-13T02:51:24;99773.72;;;13.71;100.00
33280;BME280;20403;43.114;12.434;2023-10-13T02:54:02;99777.03;;;13.66;100.00
33280;BME280;20403;43.114;12.434;2023-10-13T02:56:28;99772.34;;;13.69;100.00
33280;BME280;20403;43.114;12.434;2023-10-13T02:58:54;99767.22;;;13.74;100.00
33280;BME280;20403;43.114;12.434;2023-10-13T03:01:31;99773.16;;;13.69;100.00
33280;BME280;20403;43.114;12.434;2023-10-13T03:04:00;99775.56;;;13.71;100.00
33280;BME280;20403;43.114;12.434;2023-10-13T03:06:26;99774.84;;;13.63;100.00
33280;BME280;20403;43.114;12.434;2023-10-13T03:08:59;99778.16;;;13.59;100.00
33280;BME280;20403;43.114;12.434;2023-10-13T03:11:41;99764.69;;;13.55;100.00
33280;BME280;20403;43.114;12.434;2023-10-13T03:14:16;99774.00;;;13.51;100.00
33280;BME280;20403;43.114;12.434;2023-10-13T03:16:57;99767.38;;;13.37;100.00
33280;BME280;20403;43.114;12.434;2023-10-13T03:19:34;99777.09;;;13.48;100.00
33280;BME280;20403;43.114;12.434;2023-10-13T03:22:06;99770.25;;;13.47;100.00
33280;BME280;20403;43.114;12.434;2023-10-13T03:24:39;99770.81;;;13.49;100.00
33280;BME280;20403;43.114;12.434;2023-10-13T03:27:17;99767.41;;;13.49;100.00
33280;BME280;20403;43.114;12.434;2023-10-13T03:29:47;99770.69;;;13.44;100.00
33280;BME280;20403;43.114;12.434;2023-10-13T03:32:14;99773.22;;;13.51;100.00
33280;BME280;20403;43.114;12.434;2023-10-13T03:34:44;99773.66;;;13.48;100.00
33280;BME280;20403;43.114;12.434;2023-10-13T03:37:42;99766.13;;;13.39;100.00
33280;BME280;20403;43.114;12.434;2023-10-13T03:40:11;99765.78;;;13.36;100.00
33280;BME280;20403;43.114;12.434;2023-10-13T03:43:03;99762.72;;;13.39;100.00
33280;BME280;20403;43.114;12.434;2023-10-13T03:45:37;99764.56;;;13.50;100.00
33280;BME280;20403;43.114;12.434;2023-10-13T03:48:17;99771.94;;;13.41;100.00
33280;BME280;20403;43.114;12.434;2023-10-13T03:50:58;99760.88;;;13.39;100.00
33280;BME280;20403;43.114;12.434;2023-10-13T03:53:33;99767.50;;;13.23;100.00
33280;BME280;20403;43.114;12.434;2023-10-13T03:56:04;99766.66;;;13.30;100.00
33280;BME280;20403;43.114;12.434;2023-10-13T03:58:53;99766.78;;;13.35;100.00
33280;BME280;20403;43.114;12.434;2023-10-13T04:01:41;99766.66;;;13.30;100.00
33280;BME280;20403;43.114;12.434;2023-10-13T04:04:10;99765.56;;;13.19;100.00
33280;BME280;20403;43.114;12.434;2023-10-13T04:06:37;99762.28;;;13.23;100.00
33280;BME280;20403;43.114;12.434;2023-10-13T04:09:19;99756.59;;;13.27;100.00
33280;BME280;20403;43.114;12.434;2023-10-13T04:12:01;99766.66;;;13.11;100.00
33280;BME280;20403;43.114;12.434;2023-10-13T04:14:31;99763.78;;;13.01;100.00
33280;BME280;20403;43.114;12.434;2023-10-13T04:17:15;99762.38;;;12.98;100.00
33280;BME280;20403;43.114;12.434;2023-10-13T04:19:41;99772.78;;;13.05;100.00
33280;BME280;20403;43.114;12.434;2023-10-13T04:22:25;99765.31;;;13.09;100.00
33280;BME280;20403;43.114;12.434;2023-10-13T04:25:23;99765.97;;;13.04;100.00
33280;BME280;20403;43.114;12.434;2023-10-13T04:28:10;99768.59;;;13.04;100.00
33280;BME280;20403;43.114;12.434;2023-10-13T04:33:24;99762.31;;;13.05;100.00
33280;BME280;20403;43.114;12.434;2023-10-13T04:36:09;99774.28;;;13.01;100.00
33280;BME280;20403;43.114;12.434;2023-10-13T04:38:59;99772.44;;;13.01;100.00
33280;BME280;20403;43.114;12.434;2023-10-13T04:41:33;99777.97;;;12.93;100.00
33280;BME280;20403;43.114;12.434;2023-10-13T04:44:14;99770.19;;;12.87;100.00
33280;BME280;20403;43.114;12.434;2023-10-13T04:46:56;99773.84;;;12.86;100.00
33280;BME280;20403;43.114;12.434;2023-10-13T04:49:25;99777.69;;;12.83;100.00
33280;BME280;20403;43.114;12.434;2023-10-13T04:51:58;99781.47;;;12.87;100.00
33280;BME280;20403;43.114;12.434;2023-10-13T04:54:28;99783.81;;;12.77;100.00
33280;BME280;20403;43.114;12.434;2023-10-13T04:59:57;99784.19;;;12.62;100.00
33280;BME280;20403;43.114;12.434;2023-10-13T05:02:32;99788.16;;;12.65;100.00
33280;BME280;20403;43.114;12.434;2023-10-13T05:05:00;99795.56;;;12.68;100.00
33280;BME280;20403;43.114;12.434;2023-10-13T05:07:45;99791.00;;;12.63;100.00
33280;BME280;20403;43.114;12.434;2023-10-13T05:10:30;99790.13;;;12.69;100.00
33280;BME280;20403;43.114;12.434;2023-10-13T05:13:14;99789.47;;;12.74;100.00
33280;BME280;20403;43.114;12.434;2023-10-13T05:15:59;99791.50;;;12.72;100.00
33280;BME280;20403;43.114;12.434;2023-10-13T05:18:43;99796.88;;;12.58;100.00
33280;BME280;20403;43.114;12.434;2023-10-13T05:21:28;99799.56;;;12.70;100.00
33280;BME280;20403;43.114;12.434;2023-10-13T05:24:12;99806.84;;;12.68;100.00
33280;BME280;20403;43.114;12.434;2023-10-13T05:26:55;99807.72;;;12.62;100.00
33280;BME280;20403;43.114;12.434;2023-10-13T05:29:44;99809.31;;;12.63;100.00
33280;BME280;20403;43.114;12.434;2023-10-13T05:32:29;99812.72;;;12.64;100.00
33280;BME280;20403;43.114;12.434;2023-10-13T05:35:13;99808.97;;;12.59;100.00
33280;BME280;20403;43.114;12.434;2023-10-13T05:37:58;99811.56;;;12.41;100.00
33280;BME280;20403;43.114;12.434;2023-10-13T05:43:36;99809.22;;;12.51;100.00
33280;BME280;20403;43.114;12.434;2023-10-13T05:46:20;99816.44;;;12.56;100.00
33280;BME280;20403;43.114;12.434;2023-10-13T05:49:02;99827.00;;;12.43;100.00
33280;BME280;20403;43.114;12.434;2023-10-13T05:51:37;99823.53;;;12.49;100.00
33280;BME280;20403;43.114;12.434;2023-10-13T05:54:13;99831.41;;;12.67;100.00
33280;BME280;20403;43.114;12.434;2023-10-13T05:59:27;99843.94;;;12.83;100.00
33280;BME280;20403;43.114;12.434;2023-10-13T06:02:12;99847.00;;;12.99;100.00
33280;BME280;20403;43.114;12.434;2023-10-13T06:04:56;99852.94;;;13.06;100.00
33280;BME280;20403;43.114;12.434;2023-10-13T06:07:40;99852.72;;;13.08;100.00
33280;BME280;20403;43.114;12.434;2023-10-13T06:10:24;99858.03;;;13.19;100.00
33280;BME280;20403;43.114;12.434;2023-10-13T06:13:08;99856.28;;;13.13;100.00
33280;BME280;20403;43.114;12.434;2023-10-13T06:15:52;99859.38;;;13.29;100.00
33280;BME280;20403;43.114;12.434;2023-10-13T06:18:36;99861.88;;;13.35;100.00
33280;BME280;20403;43.114;12.434;2023-10-13T06:21:20;99861.78;;;13.42;100.00
33280;BME280;20403;43.114;12.434;2023-10-13T06:24:06;99869.53;;;13.67;100.00
33280;BME280;20403;43.114;12.434;2023-10-13T06:26:50;99867.81;;;13.91;100.00
33280;BME280;20403;43.114;12.434;2023-10-13T06:29:34;99873.00;;;14.21;100.00
33280;BME280;20403;43.114;12.434;2023-10-13T06:31:59;99869.03;;;14.42;100.00
33280;BME280;20403;43.114;12.434;2023-10-13T06:34:30;99869.50;;;14.63;100.00
33280;BME280;20403;43.114;12.434;2023-10-13T06:37:14;99871.44;;;14.67;100.00
33280;BME280;20403;43.114;12.434;2023-10-13T06:39:54;99868.69;;;14.62;100.00
33280;BME280;20403;43.114;12.434;2023-10-13T06:42:27;99862.75;;;14.55;100.00
33280;BME280;20403;43.114;12.434;2023-10-13T06:44:56;99877.03;;;14.59;100.00
33280;BME280;20403;43.114;12.434;2023-10-13T06:47:24;99882.28;;;14.71;100.00
33280;BME280;20403;43.114;12.434;2023-10-13T06:49:50;99880.44;;;14.83;100.00
33280;BME280;20403;43.114;12.434;2023-10-13T06:52:22;99886.38;;;14.90;100.00
33280;BME280;20403;43.114;12.434;2023-10-13T06:54:52;99884.09;;;14.94;100.00
33280;BME280;20403;43.114;12.434;2023-10-13T06:57:18;99892.63;;;15.01;100.00
33280;BME280;20403;43.114;12.434;2023-10-13T06:59:47;99889.75;;;15.15;100.00
33280;BME280;20403;43.114;12.434;2023-10-13T07:02:13;99901.03;;;15.27;100.00
33280;BME280;20403;43.114;12.434;2023-10-13T07:04:48;99899.84;;;15.46;100.00
33280;BME280;20403;43.114;12.434;2023-10-13T07:07:13;99904.50;;;15.56;100.00
33280;BME280;20403;43.114;12.434;2023-10-13T07:09:43;99909.06;;;15.61;100.00
33280;BME280;20403;43.114;12.434;2023-10-13T07:12:21;99909.13;;;15.66;100.00
33280;BME280;20403;43.114;12.434;2023-10-13T07:14:53;99909.59;;;15.74;100.00
33280;BME280;20403;43.114;12.434;2023-10-13T07:17:39;99914.66;;;15.93;100.00
33280;BME280;20403;43.114;12.434;2023-10-13T07:20:06;99914.03;;;16.03;100.00
33280;BME280;20403;43.114;12.434;2023-10-13T07:22:48;99914.94;;;16.08;100.00
33280;BME280;20403;43.114;12.434;2023-10-13T07:25:32;99912.94;;;16.15;100.00
33280;BME280;20403;43.114;12.434;2023-10-13T07:28:08;99912.53;;;16.24;100.00
33280;BME280;20403;43.114;12.434;2023-10-13T07:30:35;99914.38;;;16.23;100.00
33280;BME280;20403;43.114;12.434;2023-10-13T07:33:24;99913.50;;;16.51;100.00
33280;BME280;20403;43.114;12.434;2023-10-13T07:36:00;99922.19;;;16.69;100.00
33280;BME280;20403;43.114;12.434;2023-10-13T07:38:26;99916.25;;;16.95;100.00
33280;BME280;20403;43.114;12.434;2023-10-13T07:40:56;99920.75;;;17.17;100.00
33280;BME280;20403;43.114;12.434;2023-10-13T07:43:32;99913.34;;;17.36;100.00
33280;BME280;20403;43.114;12.434;2023-10-13T07:45:58;99918.84;;;17.56;100.00
33280;BME280;20403;43.114;12.434;2023-10-13T07:48:25;99909.38;;;17.60;100.00
33280;BME280;20403;43.114;12.434;2023-10-13T07:51:05;99915.66;;;17.54;100.00
33280;BME280;20403;43.114;12.434;2023-10-13T07:53:36;99912.94;;;17.71;100.00
33280;BME280;20403;43.114;12.434;2023-10-13T07:56:11;99911.28;;;17.87;100.00
33280;BME280;20403;43.114;12.434;2023-10-13T07:58:37;99912.56;;;18.12;100.00
33280;BME280;20403;43.114;12.434;2023-10-13T08:01:13;99907.03;;;18.18;100.00
33280;BME280;20403;43.114;12.434;2023-10-13T08:03:42;99907.13;;;18.29;100.00
33280;BME280;20403;43.114;12.434;2023-10-13T08:06:17;99909.25;;;18.32;100.00
33280;BME280;20403;43.114;12.434;2023-10-13T08:08:43;99899.78;;;18.73;100.00
33280;BME280;20403;43.114;12.434;2023-10-13T08:11:11;99898.72;;;19.22;100.00
33280;BME280;20403;43.114;12.434;2023-10-13T08:13:41;99892.22;;;19.55;100.00
33280;BME280;20403;43.114;12.434;2023-10-13T08:16:12;99889.84;;;19.64;100.00
33280;BME280;20403;43.114;12.434;2023-10-13T08:18:47;99899.38;;;19.65;100.00
33280;BME280;20403;43.114;12.434;2023-10-13T08:21:18;99894.16;;;19.96;100.00
33280;BME280;20403;43.114;12.434;2023-10-13T08:23:51;99894.44;;;20.20;100.00
33280;BME280;20403;43.114;12.434;2023-10-13T08:26:21;99902.63;;;20.28;100.00
33280;BME280;20403;43.114;12.434;2023-10-13T08:28:58;99894.94;;;20.11;100.00
33280;BME280;20403;43.114;12.434;2023-10-13T08:31:47;99895.47;;;20.39;100.00
33280;BME280;20403;43.114;12.434;2023-10-13T08:34:33;99893.59;;;20.70;100.00
33280;BME280;20403;43.114;12.434;2023-10-13T08:37:26;99898.34;;;20.78;100.00
33280;BME280;20403;43.114;12.434;2023-10-13T08:39:53;99895.69;;;20.73;100.00
33280;BME280;20403;43.114;12.434;2023-10-13T08:42:29;99905.78;;;20.46;100.00
33280;BME280;20403;43.114;12.434;2023-10-13T08:45:16;99903.94;;;20.36;100.00
33280;BME280;20403;43.114;12.434;2023-10-13T08:50:34;99900.97;;;20.84;100.00
33280;BME280;20403;43.114;12.434;2023-10-13T08:53:15;99896.31;;;21.25;100.00
33280;BME280;20403;43.114;12.434;2023-10-13T08:55:57;99892.38;;;21.67;100.00
33280;BME280;20403;43.114;12.434;2023-10-13T08:58:42;99892.41;;;22.01;100.00
33280;BME280;20403;43.114;12.434;2023-10-13T09:01:30;99895.59;;;22.38;100.00
33280;BME280;20403;43.114;12.434;2023-10-13T09:04:16;99886.56;;;22.63;100.00
33280;BME280;20403;43.114;12.434;2023-10-13T09:07:02;99892.41;;;22.36;100.00
33280;BME280;20403;43.114;12.434;2023-10-13T09:09:51;99889.25;;;22.34;100.00
33280;BME280;20403;43.114;12.434;2023-10-13T09:12:29;99887.34;;;22.63;100.00
33280;BME280;20403;43.114;12.434;2023-10-13T09:14:58;99880.13;;;22.93;100.00
33280;BME280;20403;43.114;12.434;2023-10-13T09:17:29;99884.84;;;22.96;100.00
33280;BME280;20403;43.114;12.434;2023-10-13T09:20:05;99880.25;;;23.07;98.95
33280;BME280;20403;43.114;12.434;2023-10-13T09:22:54;99875.53;;;23.23;100.00
33280;BME280;20403;43.114;12.434;2023-10-13T09:25:25;99874.38;;;23.48;96.82
33280;BME280;20403;43.114;12.434;2023-10-13T09:27:58;99869.53;;;23.88;92.21
33280;BME280;20403;43.114;12.434;2023-10-13T09:30:26;99875.63;;;24.21;92.44
33280;BME280;20403;43.114;12.434;2023-10-13T09:33:01;99871.72;;;24.46;85.96
33280;BME280;20403;43.114;12.434;2023-10-13T09:35:28;99865.44;;;24.56;80.31
33280;BME280;20403;43.114;12.434;2023-10-13T09:37:58;99861.41;;;24.72;80.63
33280;BME280;20403;43.114;12.434;2023-10-13T09:40:23;99858.72;;;25.00;78.92
33280;BME280;20403;43.114;12.434;2023-10-13T09:43:12;99857.09;;;25.13;79.05
33280;BME280;20403;43.114;12.434;2023-10-13T09:45:41;99863.34;;;25.22;78.56
33280;BME280;20403;43.114;12.434;2023-10-13T09:48:37;99867.13;;;24.93;75.52
33280;BME280;20403;43.114;12.434;2023-10-13T09:51:12;99856.84;;;25.01;81.38
33280;BME280;20403;43.114;12.434;2023-10-13T09:53:48;99849.34;;;25.39;76.62
33280;BME280;20403;43.114;12.434;2023-10-13T09:56:22;99848.81;;;25.51;74.13
33280;BME280;20403;43.114;12.434;2023-10-13T09:59:14;99854.63;;;25.53;76.73
33280;BME280;20403;43.114;12.434;2023-10-13T10:01:43;99858.66;;;25.64;72.48
33280;BME280;20403;43.114;12.434;2023-10-13T10:04:16;99850.16;;;25.85;74.19
33280;BME280;20403;43.114;12.434;2023-10-13T10:06:54;99849.31;;;25.98;74.15
33280;BME280;20403;43.114;12.434;2023-10-13T10:09:30;99848.78;;;25.87;74.15
33280;BME280;20403;43.114;12.434;2023-10-13T10:17:13;99836.56;;;26.66;69.17
33280;BME280;20403;43.114;12.434;2023-10-13T10:19:47;99840.09;;;26.93;66.08
33280;BME280;20403;43.114;12.434;2023-10-13T10:22:12;99847.38;;;27.18;64.13
33280;BME280;20403;43.114;12.434;2023-10-13T10:24:56;99832.88;;;27.11;63.04
33280;BME280;20403;43.114;12.434;2023-10-13T10:27:31;99833.69;;;27.37;63.99
33280;BME280;20403;43.114;12.434;2023-10-13T10:29:58;99832.28;;;27.31;60.28
33280;BME280;20403;43.114;12.434;2023-10-13T10:32:43;99825.81;;;27.23;59.73
33280;BME280;20403;43.114;12.434;2023-10-13T10:35:14;99819.34;;;27.33;61.26
33280;BME280;20403;43.114;12.434;2023-10-13T10:37:41;99826.91;;;27.31;58.83
33280;BME280;20403;43.114;12.434;2023-10-13T10:40:21;99828.94;;;26.99;59.16
33280;BME280;20403;43.114;12.434;2023-10-13T10:43:19;99822.84;;;27.25;59.00
33280;BME280;20403;43.114;12.434;2023-10-13T10:45:47;99819.31;;;26.98;57.48
33280;BME280;20403;43.114;12.434;2023-10-13T10:48:16;99816.22;;;27.22;58.56
33280;BME280;20403;43.114;12.434;2023-10-13T10:50:56;99810.38;;;27.38;56.73
33280;BME280;20403;43.114;12.434;2023-10-13T10:53:22;99811.16;;;27.47;57.58
33280;BME280;20403;43.114;12.434;2023-10-13T10:56:04;99808.16;;;27.66;55.94
33280;BME280;20403;43.114;12.434;2023-10-13T10:58:34;99806.19;;;28.01;55.10
33280;BME280;20403;43.114;12.434;2023-10-13T11:01:09;99799.91;;;27.89;53.52
33280;BME280;20403;43.114;12.434;2023-10-13T11:03:56;99797.66;;;28.08;52.81
33280;BME280;20403;43.114;12.434;2023-10-13T11:06:25;99792.03;;;28.31;53.26
33280;BME280;20403;43.114;12.434;2023-10-13T11:09:04;99789.25;;;28.10;50.49
33280;BME280;20403;43.114;12.434;2023-10-13T11:11:46;99789.78;;;28.03;49.90
33280;BME280;20403;43.114;12.434;2023-10-13T11:14:21;99781.88;;;28.06;51.33
33280;BME280;20403;43.114;12.434;2023-10-13T11:16:50;99781.69;;;28.12;50.25
33280;BME280;20403;43.114;12.434;2023-10-13T11:19:17;99776.94;;;28.17;49.61
33280;BME280;20403;43.114;12.434;2023-10-13T11:21:46;99783.88;;;28.18;49.72
33280;BME280;20403;43.114;12.434;2023-10-13T11:24:13;99772.28;;;28.65;49.77
33280;BME280;20403;43.114;12.434;2023-10-13T11:26:38;99763.38;;;28.94;49.12
33280;BME280;20403;43.114;12.434;2023-10-13T11:29:30;99767.91;;;28.81;47.88
33280;BME280;20403;43.114;12.434;2023-10-13T11:31:56;99767.09;;;28.60;48.05
33280;BME280;20403;43.114;12.434;2023-10-13T11:34:24;99761.53;;;28.65;47.25
33280;BME280;20403;43.114;12.434;2023-10-13T11:36:51;99759.09;;;28.51;47.39
33280;BME280;20403;43.114;12.434;2023-10-13T11:39:16;99753.84;;;28.84;47.38
33280;BME280;20403;43.114;12.434;2023-10-13T11:41:51;99752.50;;;28.90;47.68
33280;BME280;20403;43.114;12.434;2023-10-13T11:44:19;99753.56;;;28.77;46.32
33280;BME280;20403;43.114;12.434;2023-10-13T11:46:45;99751.41;;;28.70;47.50
33280;BME280;20403;43.114;12.434;2023-10-13T11:49:14;99745.91;;;28.88;46.68
33280;BME280;20403;43.114;12.434;2023-10-13T11:51:46;99736.94;;;29.05;47.40
33280;BME280;20403;43.114;12.434;2023-10-13T11:54:12;99735.31;;;29.13;46.55
33280;BME280;20403;43.114;12.434;2023-10-13T11:56:38;99728.03;;;29.59;46.42
33280;BME280;20403;43.114;12.434;2023-10-13T11:59:04;99729.94;;;29.58;44.69
33280;BME280;20403;43.114;12.434;2023-10-13T12:01:31;99724.75;;;29.41;44.30
33280;BME280;20403;43.114;12.434;2023-10-13T12:04:29;99716.06;;;29.56;44.39
33280;BME280;20403;43.114;12.434;2023-10-13T12:06:58;99717.28;;;29.59;42.81
33280;BME280;20403;43.114;12.434;2023-10-13T12:09:56;99711.97;;;29.83;43.42
33280;BME280;20403;43.114;12.434;2023-10-13T12:12:26;99714.53;;;29.92;43.71
33280;BME280;20403;43.114;12.434;2023-10-13T12:14:52;99700.66;;;30.02;43.11
33280;BME280;20403;43.114;12.434;2023-10-13T12:17:21;99699.16;;;30.17;43.39
33280;BME280;20403;43.114;12.434;2023-10-13T12:19:57;99699.75;;;29.86;40.59
33280;BME280;20403;43.114;12.434;2023-10-13T12:22:22;99698.06;;;30.06;40.83
33280;BME280;20403;43.114;12.434;2023-10-13T12:25:00;99692.66;;;30.06;40.45
33280;BME280;20403;43.114;12.434;2023-10-13T12:27:29;99690.00;;;29.93;40.51
33280;BME280;20403;43.114;12.434;2023-10-13T12:30:11;99687.66;;;30.04;40.99
33280;BME280;20403;43.114;12.434;2023-10-13T12:32:42;99683.94;;;29.97;41.76
33280;BME280;20403;43.114;12.434;2023-10-13T12:35:19;99679.25;;;29.93;39.34
33280;BME280;20403;43.114;12.434;2023-10-13T12:38:01;99680.91;;;29.73;38.00
33280;BME280;20403;43.114;12.434;2023-10-13T12:40:52;99678.97;;;29.49;38.22
33280;BME280;20403;43.114;12.434;2023-10-13T12:43:36;99675.97;;;29.51;39.68
33280;BME280;20403;43.114;12.434;2023-10-13T12:46:20;99662.84;;;29.62;39.17
33280;BME280;20403;43.114;12.434;2023-10-13T12:49:05;99672.25;;;29.43;38.75
33280;BME280;20403;43.114;12.434;2023-10-13T12:51:42;99666.91;;;29.56;40.41
33280;BME280;20403;43.114;12.434;2023-10-13T12:54:16;99670.41;;;29.93;39.64
33280;BME280;20403;43.114;12.434;2023-10-13T12:56:48;99658.06;;;29.80;38.95
33280;BME280;20403;43.114;12.434;2023-10-13T12:59:13;99658.50;;;29.94;39.08
33280;BME280;20403;43.114;12.434;2023-10-13T13:01:40;99659.16;;;29.66;40.35
33280;BME280;20403;43.114;12.434;2023-10-13T13:04:09;99658.16;;;29.59;40.92
33280;BME280;20403;43.114;12.434;2023-10-13T13:06:49;99659.94;;;29.67;40.74
33280;BME280;20403;43.114;12.434;2023-10-13T13:09:16;99654.78;;;29.62;40.00
33280;BME280;20403;43.114;12.434;2023-10-13T13:11:51;99651.25;;;29.70;41.01
33280;BME280;20403;43.114;12.434;2023-10-13T13:14:16;99652.22;;;29.65;40.35
33280;BME280;20403;43.114;12.434;2023-10-13T13:16:42;99650.19;;;29.62;40.67
33280;BME280;20403;43.114;12.434;2023-10-13T13:19:07;99650.78;;;29.80;41.35
33280;BME280;20403;43.114;12.434;2023-10-13T13:21:38;99653.91;;;30.07;40.75
33280;BME280;20403;43.114;12.434;2023-10-13T13:24:04;99640.00;;;30.29;41.20
33280;BME280;20403;43.114;12.434;2023-10-13T13:26:38;99638.47;;;30.44;40.26
33280;BME280;20403;43.114;12.434;2023-10-13T13:29:06;99633.00;;;30.41;41.14
33280;BME280;20403;43.114;12.434;2023-10-13T13:31:35;99632.91;;;30.25;41.35
33280;BME280;20403;43.114;12.434;2023-10-13T13:34:09;99632.34;;;30.19;40.78
33280;BME280;20403;43.114;12.434;2023-10-13T13:36:35;99627.97;;;30.27;41.64
33280;BME280;20403;43.114;12.434;2023-10-13T13:39:00;99629.22;;;30.17;40.98
33280;BME280;20403;43.114;12.434;2023-10-13T13:41:26;99621.81;;;30.39;42.40
33280;BME280;20403;43.114;12.434;2023-10-13T13:43:52;99624.72;;;30.33;43.57